createdAt,value
2022-09-17T00:01:31.768Z,3.10
2022-09-17T00:04:02.102Z,2.67
2022-09-17T00:06:29.991Z,2.63
2022-09-17T00:08:57.327Z,2.45
2022-09-17T00:11:30.605Z,2.53
2022-09-17T00:14:02.106Z,2.60
2022-09-17T00:16:37.683Z,2.33
2022-09-17T00:19:10.467Z,2.72
2022-09-17T00:21:37.926Z,2.90
2022-09-17T00:24:06.440Z,2.60
2022-09-17T00:26:35.061Z,2.35
2022-09-17T00:29:02.439Z,2.33
2022-09-17T00:31:33.176Z,2.30
2022-09-17T00:34:01.860Z,2.17
2022-09-17T00:36:31.922Z,2.20
2022-09-17T00:39:02.523Z,2.40
2022-09-17T00:41:32.860Z,2.60
2022-09-17T00:44:22.034Z,2.63
2022-09-17T00:46:50.119Z,3.20
2022-09-17T00:49:19.381Z,2.70
2022-09-17T00:52:00.516Z,2.40
2022-09-17T00:54:33.276Z,2.67
2022-09-17T00:57:04.477Z,2.40
2022-09-17T00:59:32.189Z,2.38
2022-09-17T01:01:59.562Z,2.65
2022-09-17T01:04:28.053Z,2.60
2022-09-17T01:07:05.400Z,2.53
2022-09-17T01:09:55.739Z,2.47
2022-09-17T01:12:39.396Z,2.60
2022-09-17T01:15:25.098Z,2.80
2022-09-17T01:18:10.748Z,2.33
2022-09-17T01:21:19.823Z,2.50
2022-09-17T01:23:58.822Z,2.60
2022-09-17T01:27:05.969Z,3.30
2022-09-17T01:29:57.521Z,3.40
2022-09-17T01:32:47.164Z,3.00
2022-09-17T01:35:23.427Z,2.50
2022-09-17T01:38:08.848Z,3.22
2022-09-17T01:40:51.004Z,2.50
2022-09-17T01:43:36.571Z,3.00
2022-09-17T01:46:14.633Z,2.80
2022-09-17T01:48:46.713Z,2.47
2022-09-17T01:51:24.562Z,3.40
2022-09-17T01:54:10.052Z,3.30
2022-09-17T01:56:47.546Z,3.13
2022-09-17T01:59:22.264Z,3.45
2022-09-17T02:01:54.970Z,3.65
2022-09-17T02:04:42.067Z,3.83
2022-09-17T02:07:16.368Z,3.45
2022-09-17T02:09:51.093Z,3.35
2022-09-17T02:12:27.676Z,2.95
2022-09-17T02:14:59.098Z,3.05
2022-09-17T02:17:56.060Z,3.00
2022-09-17T02:20:30.017Z,3.20
2022-09-17T02:23:02.774Z,2.65
2022-09-17T02:26:03.963Z,2.50
2022-09-17T02:28:47.256Z,2.60
2022-09-17T02:31:14.788Z,2.38
2022-09-17T02:33:48.299Z,2.40
2022-09-17T02:36:16.081Z,2.08
2022-09-17T02:38:46.841Z,2.50
2022-09-17T02:41:28.543Z,2.40
2022-09-17T02:44:05.183Z,2.80
2022-09-17T02:46:57.352Z,2.58
2022-09-17T02:49:44.862Z,2.58
2022-09-17T02:52:56.705Z,2.58
2022-09-17T02:55:53.967Z,2.88
2022-09-17T02:58:49.122Z,2.97
2022-09-17T03:01:42.469Z,3.15
2022-09-17T03:04:12.391Z,3.38
2022-09-17T03:06:41.091Z,3.50
2022-09-17T03:09:12.076Z,3.80
2022-09-17T03:11:39.354Z,4.28
2022-09-17T03:14:10.928Z,4.03
2022-09-17T03:16:40.785Z,4.32
2022-09-17T03:19:10.278Z,4.05
2022-09-17T03:21:39.909Z,3.53
2022-09-17T03:24:08.187Z,4.57
2022-09-17T03:26:35.520Z,3.95
2022-09-17T03:29:02.839Z,4.50
2022-09-17T03:31:30.260Z,4.35
2022-09-17T03:34:00.150Z,4.85
2022-09-17T03:36:27.923Z,4.60
2022-09-17T03:38:58.699Z,4.55
2022-09-17T03:41:26.639Z,4.45
2022-09-17T03:43:54.485Z,5.10
2022-09-17T03:46:21.853Z,5.13
2022-09-17T03:48:51.541Z,4.43
2022-09-17T03:51:18.863Z,4.93
2022-09-17T03:53:53.249Z,4.80
2022-09-17T03:56:22.923Z,5.10
2022-09-17T03:58:50.216Z,5.60
2022-09-17T04:01:19.690Z,5.47
2022-09-17T04:03:47.001Z,5.07
2022-09-17T04:06:14.270Z,5.28
2022-09-17T04:08:43.844Z,5.18
2022-09-17T04:11:11.311Z,5.40
2022-09-17T04:13:41.545Z,5.47
2022-09-17T04:16:08.909Z,5.63
2022-09-17T04:18:38.749Z,5.53
2022-09-17T04:21:06.339Z,5.40
2022-09-17T04:23:33.629Z,5.40
2022-09-17T04:26:05.832Z,5.65
2022-09-17T04:28:36.048Z,5.95
2022-09-17T04:31:05.642Z,5.32
2022-09-17T04:33:33.035Z,5.75
2022-09-17T04:36:00.378Z,5.50
2022-09-17T04:38:30.111Z,5.20
2022-09-17T04:40:57.418Z,5.70
2022-09-17T04:43:25.003Z,5.65
2022-09-17T04:45:52.267Z,5.15
2022-09-17T04:48:21.929Z,5.22
2022-09-17T04:50:49.189Z,5.32
2022-09-17T04:53:18.758Z,5.43
2022-09-17T04:55:46.062Z,4.97
2022-09-17T04:58:15.790Z,4.72
2022-09-17T05:00:43.230Z,5.35
2022-09-17T05:03:10.543Z,5.70
2022-09-17T05:05:40.180Z,4.72
2022-09-17T05:08:08.515Z,5.03
2022-09-17T05:10:38.299Z,4.90
2022-09-17T05:13:05.572Z,4.72
2022-09-17T05:15:35.192Z,4.85
2022-09-17T05:18:04.987Z,4.55
2022-09-17T05:20:32.256Z,4.30
2022-09-17T05:22:59.558Z,4.00
2022-09-17T05:25:26.856Z,3.72
2022-09-17T05:27:54.833Z,3.90
2022-09-17T05:30:25.121Z,4.35
2022-09-17T05:33:01.784Z,3.70
2022-09-17T05:35:29.337Z,3.67
2022-09-17T05:37:58.752Z,3.97
2022-09-17T05:40:26.306Z,3.50
2022-09-17T05:43:01.424Z,3.50
2022-09-17T05:45:34.584Z,3.10
2022-09-17T05:48:03.173Z,3.35
2022-09-17T05:50:33.249Z,3.17
2022-09-17T05:53:09.097Z,3.38
2022-09-17T05:55:36.517Z,2.70
2022-09-17T05:58:13.880Z,3.08
2022-09-17T06:00:44.248Z,3.35
2022-09-17T06:03:15.401Z,3.50
2022-09-17T06:05:51.917Z,3.40
2022-09-17T06:08:19.227Z,3.53
2022-09-17T06:10:49.279Z,3.50
2022-09-17T06:13:19.780Z,3.28
2022-09-17T06:15:51.951Z,2.80
2022-09-17T06:18:22.408Z,2.80
2022-09-17T06:20:55.012Z,2.38
2022-09-17T06:23:22.723Z,2.70
2022-09-17T06:25:57.639Z,2.97
2022-09-17T06:28:29.019Z,2.85
2022-09-17T06:31:04.477Z,3.00
2022-09-17T06:33:36.304Z,2.40
2022-09-17T06:36:13.356Z,2.28
2022-09-17T06:38:41.698Z,2.88
2022-09-17T06:41:15.011Z,2.80
2022-09-17T06:43:42.658Z,2.92
2022-09-17T06:46:12.994Z,3.05
2022-09-17T06:48:40.445Z,3.50
2022-09-17T06:51:10.544Z,2.60
2022-09-17T06:53:38.833Z,2.78
2022-09-17T06:56:08.292Z,2.70
2022-09-17T06:58:41.915Z,2.92
2022-09-17T07:01:10.540Z,3.05
2022-09-17T07:03:38.546Z,2.92
2022-09-17T07:06:12.571Z,2.85
2022-09-17T07:08:39.970Z,2.30
2022-09-17T07:11:08.080Z,3.10
2022-09-17T07:13:37.935Z,2.78
2022-09-17T07:16:06.485Z,2.67
2022-09-17T07:18:34.003Z,3.00
2022-09-17T07:21:08.438Z,2.80
2022-09-17T07:23:37.193Z,3.10
2022-09-17T07:26:12.273Z,3.15
2022-09-17T07:28:43.931Z,2.75
2022-09-17T07:33:46.683Z,2.72
2022-09-17T07:36:18.820Z,2.80
2022-09-17T07:38:47.212Z,2.70
2022-09-17T07:41:18.960Z,3.50
2022-09-17T07:46:16.507Z,3.50
2022-09-17T07:48:44.121Z,3.55
2022-09-17T07:51:25.587Z,3.30
2022-09-17T07:53:54.307Z,3.45
2022-09-17T07:56:22.550Z,4.05
2022-09-17T07:58:49.844Z,3.58
2022-09-17T08:01:18.157Z,4.00
2022-09-17T08:03:53.140Z,3.42
2022-09-17T08:06:25.809Z,3.75
2022-09-17T08:08:53.140Z,3.15
2022-09-17T08:11:51.687Z,3.63
2022-09-17T08:14:16.667Z,3.33
2022-09-17T08:16:46.432Z,3.10
2022-09-17T08:19:13.672Z,3.20
2022-09-17T08:21:40.959Z,3.33
2022-09-17T08:24:13.186Z,2.88
2022-09-17T08:26:42.730Z,3.22
2022-09-17T08:29:12.407Z,2.63
2022-09-17T08:31:39.921Z,3.10
2022-09-17T08:34:09.293Z,2.40
2022-09-17T08:36:36.970Z,2.30
2022-09-17T08:39:04.387Z,2.50
2022-09-17T08:41:34.467Z,2.50
2022-09-17T08:44:04.884Z,2.40
2022-09-17T08:46:45.401Z,2.25
2022-09-17T08:49:33.044Z,2.40
2022-09-17T08:52:32.516Z,2.15
2022-09-17T08:55:23.503Z,2.58
2022-09-17T08:57:55.199Z,2.30
2022-09-17T09:00:27.220Z,2.10
2022-09-17T09:03:32.220Z,2.33
2022-09-17T09:06:01.531Z,2.30
2022-09-17T09:08:37.703Z,1.95
2022-09-17T09:11:11.356Z,1.80
2022-09-17T09:13:46.336Z,2.28
2022-09-17T09:16:16.571Z,1.90
2022-09-17T09:18:44.243Z,1.85
2022-09-17T09:21:31.807Z,1.50
2022-09-17T09:24:10.010Z,1.70
2022-09-17T09:26:49.636Z,1.60
2022-09-17T09:29:37.719Z,1.63
2022-09-17T09:32:22.862Z,1.50
2022-09-17T09:34:51.486Z,1.27
2022-09-17T09:37:33.647Z,1.60
2022-09-17T09:40:22.643Z,1.42
2022-09-17T09:43:00.070Z,1.55
2022-09-17T09:45:51.557Z,1.60
2022-09-17T09:48:55.167Z,1.58
2022-09-17T09:51:50.595Z,1.10
2022-09-17T09:54:29.582Z,1.73
2022-09-17T09:57:07.536Z,1.50
2022-09-17T09:59:38.040Z,1.20
2022-09-17T10:02:05.437Z,1.33
2022-09-17T10:04:37.816Z,1.67
2022-09-17T10:07:15.485Z,1.30
2022-09-17T10:09:48.111Z,1.17
2022-09-17T10:12:21.667Z,1.80
2022-09-17T10:14:54.024Z,1.20
2022-09-17T10:17:27.513Z,1.10
2022-09-17T10:20:10.718Z,1.30
2022-09-17T10:22:44.611Z,1.25
2022-09-17T10:25:28.550Z,1.20
2022-09-17T10:27:59.576Z,1.30
2022-09-17T10:30:29.384Z,1.30
2022-09-17T10:33:26.677Z,1.15
2022-09-17T10:36:02.854Z,1.50
2022-09-17T10:38:44.145Z,1.20
2022-09-17T10:41:13.420Z,1.35
2022-09-17T10:43:41.409Z,1.25
2022-09-17T10:46:12.592Z,1.13
2022-09-17T10:48:57.521Z,1.30
2022-09-17T10:51:27.923Z,1.15
2022-09-17T10:54:15.088Z,1.13
2022-09-17T10:56:49.783Z,1.10
2022-09-17T10:59:33.489Z,1.27
2022-09-17T11:02:37.237Z,0.80
2022-09-17T11:05:31.766Z,0.95
2022-09-17T11:08:21.333Z,1.10
2022-09-17T11:11:05.088Z,1.10
2022-09-17T11:13:45.644Z,1.10
2022-09-17T11:16:48.391Z,1.08
2022-09-17T11:19:50.471Z,1.48
2022-09-17T11:24:48.869Z,1.38
2022-09-17T11:27:21.512Z,1.52
2022-09-17T11:30:15.602Z,1.88
2022-09-17T11:32:52.877Z,1.60
2022-09-17T11:35:46.652Z,1.90
2022-09-17T11:38:49.327Z,1.48
2022-09-17T11:41:45.132Z,1.25
2022-09-17T11:44:22.991Z,1.00
2022-09-17T11:46:59.620Z,1.23
2022-09-17T11:49:39.389Z,0.73
2022-09-17T11:52:21.902Z,0.80
2022-09-17T11:55:24.536Z,0.95
2022-09-17T11:57:57.976Z,0.80
2022-09-17T12:00:28.445Z,0.70
2022-09-17T12:03:06.798Z,0.70
2022-09-17T12:05:42.951Z,1.10
2022-09-17T12:08:34.705Z,0.95
2022-09-17T12:11:12.611Z,0.90
2022-09-17T12:13:53.031Z,0.75
2022-09-17T12:16:27.771Z,0.77
2022-09-17T12:19:20.053Z,0.73
2022-09-17T12:21:49.456Z,0.82
2022-09-17T12:24:24.462Z,0.98
2022-09-17T12:27:01.459Z,0.63
2022-09-17T12:29:49.184Z,0.80
2022-09-17T12:32:25.845Z,0.85
2022-09-17T12:35:17.592Z,0.77
2022-09-17T12:37:56.780Z,0.93
2022-09-17T12:40:51.884Z,0.82
2022-09-17T12:43:58.509Z,0.75
2022-09-17T12:47:03.569Z,0.70
2022-09-17T12:50:04.168Z,0.65
2022-09-17T12:52:37.718Z,0.65
2022-09-17T12:55:14.060Z,0.70
2022-09-17T12:58:03.285Z,0.70
2022-09-17T13:00:37.616Z,0.77
2022-09-17T13:03:22.114Z,0.80
2022-09-17T13:06:09.161Z,0.80
2022-09-17T13:08:40.129Z,0.77
2022-09-17T13:12:01.576Z,0.80
2022-09-17T13:15:07.625Z,0.70
2022-09-17T13:18:23.690Z,0.88
2022-09-17T13:21:41.976Z,0.80
2022-09-17T13:24:22.586Z,0.93
2022-09-17T13:26:53.966Z,1.20
2022-09-17T13:29:56.560Z,1.10
2022-09-17T13:32:35.658Z,1.05
2022-09-17T13:35:11.628Z,1.13
2022-09-17T13:37:52.465Z,1.15
2022-09-17T13:40:24.473Z,1.07
2022-09-17T13:42:58.769Z,1.13
2022-09-17T13:45:30.131Z,1.30
2022-09-17T13:48:09.262Z,1.23
2022-09-17T13:50:39.616Z,1.23
2022-09-17T13:53:09.032Z,1.30
2022-09-17T13:56:01.016Z,1.15
2022-09-17T14:01:01.061Z,1.17
2022-09-17T14:03:31.514Z,1.30
2022-09-17T14:06:19.490Z,1.27
2022-09-17T14:08:49.928Z,0.98
2022-09-17T14:11:23.254Z,1.70
2022-09-17T14:14:04.145Z,3.75
2022-09-17T14:16:40.663Z,5.47
2022-09-17T14:19:29.379Z,2.53
2022-09-17T14:22:06.050Z,2.55
2022-09-17T14:24:46.774Z,2.47
2022-09-17T14:27:25.599Z,2.47
2022-09-17T14:30:16.014Z,1.70
2022-09-17T14:33:00.663Z,1.30
2022-09-17T14:35:36.765Z,1.30
2022-09-17T14:38:09.848Z,1.40
2022-09-17T14:40:44.494Z,1.35
2022-09-17T14:43:22.093Z,1.30
2022-09-17T14:45:52.945Z,1.40
2022-09-17T14:48:29.180Z,1.50
2022-09-17T14:51:22.364Z,1.60
2022-09-17T14:54:15.549Z,3.40
2022-09-17T14:57:02.573Z,3.03
2022-09-17T14:59:42.383Z,2.05
2022-09-17T15:02:38.461Z,2.13
2022-09-17T15:05:31.684Z,1.70
2022-09-17T15:08:14.446Z,1.27
2022-09-17T15:11:11.911Z,1.42
2022-09-17T15:13:47.492Z,1.70
2022-09-17T15:16:25.623Z,1.80
2022-09-17T15:19:00.980Z,1.48
2022-09-17T15:21:53.076Z,1.13
2022-09-17T15:24:26.054Z,1.10
2022-09-17T15:26:58.584Z,1.35
2022-09-17T15:29:31.201Z,1.50
2022-09-17T15:31:58.613Z,1.27
2022-09-17T15:34:28.104Z,1.38
2022-09-17T15:37:17.432Z,1.10
2022-09-17T15:39:54.612Z,1.40
2022-09-17T15:42:29.453Z,1.17
2022-09-17T15:45:08.965Z,1.20
2022-09-17T15:47:48.228Z,1.58
2022-09-17T15:50:25.797Z,1.40
2022-09-17T15:53:11.152Z,1.40
2022-09-17T15:55:45.339Z,1.60
2022-09-17T15:58:24.721Z,2.25
2022-09-17T16:01:15.137Z,2.20
2022-09-17T16:03:43.545Z,1.58
2022-09-17T16:06:19.753Z,1.88
2022-09-17T16:08:55.699Z,2.13
2022-09-17T16:11:29.080Z,1.60
2022-09-17T16:14:00.520Z,2.00
2022-09-17T16:16:35.922Z,2.00
2022-09-17T16:19:04.714Z,1.63
2022-09-17T16:21:32.275Z,1.80
2022-09-17T16:23:59.559Z,2.00
2022-09-17T16:26:31.802Z,1.60
2022-09-17T16:29:08.024Z,2.28
2022-09-17T16:31:35.402Z,2.00
2022-09-17T16:34:04.943Z,1.80
2022-09-17T16:36:32.392Z,1.73
2022-09-17T16:38:59.710Z,1.70
2022-09-17T16:41:26.988Z,1.75
2022-09-17T16:43:58.487Z,1.70
2022-09-17T16:46:30.001Z,1.80
2022-09-17T16:48:57.433Z,2.20
2022-09-17T16:51:24.692Z,1.75
2022-09-17T16:53:54.882Z,2.13
2022-09-17T16:56:22.212Z,2.22
2022-09-17T16:58:53.677Z,2.20
2022-09-17T17:01:21.053Z,2.10
2022-09-17T17:03:52.058Z,2.17
2022-09-17T17:06:20.936Z,2.00
2022-09-17T17:08:49.552Z,1.80
2022-09-17T17:11:16.826Z,1.70
2022-09-17T17:13:47.420Z,1.40
2022-09-17T17:16:16.143Z,1.55
2022-09-17T17:18:44.534Z,1.35
2022-09-17T17:21:14.153Z,1.50
2022-09-17T17:23:43.819Z,1.42
2022-09-17T17:26:13.473Z,1.60
2022-09-17T17:28:40.857Z,1.35
2022-09-17T17:31:08.286Z,1.00
2022-09-17T17:33:38.030Z,0.88
2022-09-17T17:36:08.245Z,1.10
2022-09-17T17:38:38.756Z,1.10
2022-09-17T17:41:08.758Z,1.13
2022-09-17T17:43:36.662Z,1.17
2022-09-17T17:46:09.678Z,1.10
2022-09-17T17:48:37.224Z,1.10
2022-09-17T17:51:06.570Z,1.25
2022-09-17T17:53:37.307Z,2.03
2022-09-17T17:56:06.996Z,1.50
2022-09-17T17:58:37.334Z,1.50
2022-09-17T18:01:16.978Z,1.70
2022-09-17T18:03:44.924Z,1.52
2022-09-17T18:06:12.901Z,1.30
2022-09-17T18:08:42.147Z,1.38
2022-09-17T18:11:11.248Z,1.30
2022-09-17T18:13:39.965Z,1.08
2022-09-17T18:16:12.657Z,1.35
2022-09-17T18:18:44.700Z,1.27
2022-09-17T18:21:18.326Z,1.10
2022-09-17T18:23:46.219Z,1.27
2022-09-17T18:26:15.855Z,1.00
2022-09-17T18:28:43.486Z,1.30
2022-09-17T18:31:31.420Z,1.27
2022-09-17T18:34:05.420Z,1.17
2022-09-17T18:36:34.911Z,1.20
2022-09-17T18:39:44.593Z,1.30
2022-09-17T18:44:22.372Z,1.13
2022-09-17T18:46:51.247Z,1.27
2022-09-17T18:49:21.948Z,1.40
2022-09-17T18:51:51.616Z,1.33
2022-09-17T18:54:18.932Z,1.30
2022-09-17T18:56:46.196Z,1.52
2022-09-17T18:59:13.569Z,1.35
2022-09-17T19:01:41.247Z,1.30
2022-09-17T19:04:11.272Z,1.38
2022-09-17T19:06:38.653Z,1.35
2022-09-17T19:09:09.339Z,1.50
2022-09-17T19:11:36.665Z,1.58
2022-09-17T19:14:08.839Z,1.80
2022-09-17T19:16:36.246Z,2.10
2022-09-17T19:19:06.496Z,2.00
2022-09-17T19:21:36.240Z,2.00
2022-09-17T19:24:03.915Z,1.92
2022-09-17T19:26:33.430Z,2.30
2022-09-17T19:29:00.773Z,2.30
2022-09-17T19:31:32.857Z,1.85
2022-09-17T19:34:02.826Z,1.95
2022-09-17T19:36:30.238Z,2.00
2022-09-17T19:38:58.793Z,2.30
2022-09-17T19:41:26.329Z,2.15
2022-09-17T19:43:55.083Z,1.80
2022-09-17T19:46:26.206Z,2.30
2022-09-17T19:48:55.582Z,2.40
2022-09-17T19:51:25.644Z,2.05
2022-09-17T19:53:53.502Z,1.90
2022-09-17T19:56:23.239Z,2.08
2022-09-17T19:58:50.893Z,2.00
2022-09-17T20:01:21.345Z,1.73
2022-09-17T20:03:51.139Z,1.70
2022-09-17T20:06:20.765Z,1.83
2022-09-17T20:08:50.137Z,1.80
2022-09-17T20:11:22.000Z,1.65
2022-09-17T20:13:49.426Z,1.40
2022-09-17T20:16:19.547Z,1.50
2022-09-17T20:18:49.744Z,1.40
2022-09-17T20:21:24.843Z,1.30
2022-09-17T20:23:52.448Z,1.30
2022-09-17T20:26:22.942Z,1.67
2022-09-17T20:28:51.782Z,1.30
2022-09-17T20:31:20.490Z,1.52
2022-09-17T20:33:48.244Z,1.50
2022-09-17T20:36:18.513Z,1.10
2022-09-17T20:41:34.959Z,1.10
2022-09-17T20:44:02.551Z,1.00
2022-09-17T20:46:30.017Z,1.00
2022-09-17T20:48:58.196Z,1.00
2022-09-17T20:51:30.369Z,1.13
2022-09-17T20:53:58.175Z,1.20
2022-09-17T20:56:31.402Z,1.25
2022-09-17T20:59:24.909Z,1.10
2022-09-17T21:01:53.658Z,1.05
2022-09-17T21:04:24.282Z,1.52
2022-09-17T21:06:53.756Z,1.20
2022-09-17T21:09:23.669Z,0.93
2022-09-17T21:11:50.999Z,1.02
2022-09-17T21:14:21.132Z,1.15
2022-09-17T21:16:51.824Z,1.20
2022-09-17T21:19:24.264Z,1.10
2022-09-17T21:21:54.711Z,0.90
2022-09-17T21:24:22.861Z,1.00
2022-09-17T21:26:51.967Z,0.90
2022-09-17T21:29:19.272Z,0.93
2022-09-17T21:31:46.666Z,1.00
2022-09-17T21:34:14.435Z,0.90
2022-09-17T21:36:44.559Z,0.90
2022-09-17T21:39:14.864Z,0.90
2022-09-17T21:41:43.794Z,0.80
2022-09-17T21:44:12.177Z,0.93
2022-09-17T21:46:40.497Z,1.00
2022-09-17T21:49:08.307Z,0.85
2022-09-17T21:51:40.651Z,0.82
2022-09-17T21:54:10.798Z,1.10
2022-09-17T21:56:38.595Z,0.82
2022-09-17T21:59:11.111Z,0.95
2022-09-17T22:01:41.076Z,1.10
2022-09-17T22:04:13.571Z,0.90
2022-09-17T22:06:47.222Z,0.90
2022-09-17T22:09:30.296Z,0.98
2022-09-17T22:11:57.673Z,0.90
2022-09-17T22:14:25.597Z,1.00
2022-09-17T22:16:59.786Z,0.90
2022-09-17T22:19:27.368Z,0.88
2022-09-17T22:21:55.776Z,1.10
2022-09-17T22:24:26.676Z,1.00
2022-09-17T22:26:58.485Z,0.90
2022-09-17T22:29:31.692Z,0.88
2022-09-17T22:31:59.388Z,1.10
2022-09-17T22:34:26.805Z,1.00
2022-09-17T22:36:54.294Z,1.00
2022-09-17T22:39:22.192Z,0.80
2022-09-17T22:41:51.051Z,0.80
2022-09-17T22:44:20.156Z,1.10
2022-09-17T22:46:52.625Z,0.90
2022-09-17T22:49:20.423Z,0.90
2022-09-17T22:51:49.992Z,1.00
2022-09-17T22:54:18.461Z,0.82
2022-09-17T22:56:47.576Z,1.02
2022-09-17T22:59:15.052Z,0.90
2022-09-17T23:01:44.859Z,1.00
2022-09-17T23:04:12.358Z,0.73
2022-09-17T23:06:42.647Z,0.80
2022-09-17T23:09:12.531Z,0.90
2022-09-17T23:11:40.538Z,1.17
2022-09-17T23:14:13.789Z,0.90
2022-09-17T23:16:44.389Z,1.05
2022-09-17T23:19:15.505Z,0.70
2022-09-17T23:21:43.799Z,1.17
2022-09-17T23:24:16.851Z,0.70
2022-09-17T23:26:44.383Z,0.80
2022-09-17T23:29:11.880Z,0.80
2022-09-17T23:31:40.090Z,0.95
2022-09-17T23:34:07.620Z,0.90
2022-09-17T23:36:36.999Z,1.00
2022-09-17T23:39:06.493Z,1.10
2022-09-17T23:41:38.319Z,1.08
2022-09-17T23:46:42.584Z,0.95
2022-09-17T23:49:13.402Z,1.05
2022-09-17T23:51:40.843Z,1.20
2022-09-17T23:54:08.343Z,1.02
2022-09-17T23:56:40.458Z,1.08
2022-09-17T23:59:08.502Z,1.00
